createdAt,value
2019-01-23T00:00:36.480Z,1.70
2019-01-23T00:03:03.368Z,1.20
2019-01-23T00:05:30.007Z,1.20
2019-01-23T00:07:56.676Z,1.20
2019-01-23T00:10:23.355Z,1.00
2019-01-23T00:12:49.997Z,1.20
2019-01-23T00:15:16.940Z,1.10
2019-01-23T00:17:44.814Z,1.40
2019-01-23T00:20:11.439Z,1.40
2019-01-23T00:22:38.293Z,1.60
2019-01-23T00:25:05.022Z,1.40
2019-01-23T00:27:31.630Z,1.60
2019-01-23T00:29:58.568Z,1.50
2019-01-23T00:32:25.413Z,1.30
2019-01-23T00:34:52.005Z,1.20
2019-01-23T00:37:18.931Z,1.10
2019-01-23T00:39:46.383Z,1.00
2019-01-23T00:42:13.184Z,0.80
2019-01-23T00:44:39.853Z,0.60
2019-01-23T00:47:06.583Z,0.70
2019-01-23T00:49:33.471Z,0.70
2019-01-23T00:52:00.206Z,0.70
2019-01-23T00:54:26.815Z,0.40
2019-01-23T00:56:53.418Z,0.60
2019-01-23T00:59:20.053Z,0.80
2019-01-23T01:01:46.692Z,0.90
2019-01-23T01:04:13.302Z,1.00
2019-01-23T01:06:41.193Z,0.80
2019-01-23T01:09:08.021Z,0.70
2019-01-23T01:11:34.975Z,0.70
2019-01-23T01:14:01.564Z,0.90
2019-01-23T01:16:28.311Z,0.70
2019-01-23T01:18:54.973Z,0.50
2019-01-23T01:21:21.947Z,0.70
2019-01-23T01:23:49.460Z,0.80
2019-01-23T01:26:20.776Z,1.00
2019-01-23T01:28:55.816Z,1.10
2019-01-23T01:31:19.869Z,1.10
2019-01-23T01:36:34.385Z,0.30
2019-01-23T01:39:03.099Z,0.40
2019-01-23T01:41:30.458Z,0.60
2019-01-23T01:43:59.042Z,0.40
2019-01-23T01:46:25.751Z,0.30
2019-01-23T01:48:53.289Z,0.40
2019-01-23T01:51:20.034Z,0.30
2019-01-23T01:53:46.958Z,0.70
2019-01-23T01:56:15.862Z,0.60
2019-01-23T01:58:44.106Z,0.50
2019-01-23T02:01:10.735Z,0.70
2019-01-23T02:03:40.394Z,0.70
2019-01-23T02:06:11.126Z,0.70
2019-01-23T02:08:39.421Z,0.70
2019-01-23T02:11:06.975Z,0.00
2019-01-23T02:13:34.622Z,0.30
2019-01-23T02:16:01.636Z,0.40
2019-01-23T02:18:28.244Z,0.40
2019-01-23T02:20:55.145Z,0.60
2019-01-23T02:23:22.494Z,0.00
2019-01-23T02:25:49.507Z,0.10
2019-01-23T02:28:16.118Z,0.60
2019-01-23T02:30:42.926Z,0.50
2019-01-23T02:33:12.511Z,0.20
2019-01-23T02:35:40.159Z,0.40
2019-01-23T02:38:08.678Z,0.60
2019-01-23T02:40:37.481Z,0.60
2019-01-23T02:43:04.177Z,0.70
2019-01-23T02:45:33.400Z,0.40
2019-01-23T02:48:00.359Z,0.10
2019-01-23T02:50:27.045Z,-0.30
2019-01-23T02:52:58.508Z,-0.30
2019-01-23T02:55:27.137Z,-0.30
2019-01-23T02:57:55.229Z,-0.10
2019-01-23T03:00:22.293Z,0.00
2019-01-23T03:02:49.315Z,0.40
2019-01-23T03:05:17.185Z,0.60
2019-01-23T03:07:46.511Z,0.70
2019-01-23T03:10:13.465Z,0.30
2019-01-23T03:12:41.387Z,0.50
2019-01-23T03:15:08.209Z,0.70
2019-01-23T03:17:36.570Z,0.70
2019-01-23T03:20:04.294Z,0.30
2019-01-23T03:22:33.764Z,0.40
2019-01-23T03:25:01.410Z,0.50
2019-01-23T03:27:34.644Z,-0.10
2019-01-23T03:30:05.053Z,0.00
2019-01-23T03:32:32.741Z,-0.20
2019-01-23T03:35:00.407Z,-0.40
2019-01-23T03:37:35.266Z,0.20
2019-01-23T03:40:03.818Z,0.40
2019-01-23T03:42:33.750Z,0.70
2019-01-23T03:45:00.895Z,0.70
2019-01-23T03:47:28.891Z,0.30
2019-01-23T03:49:57.800Z,0.50
2019-01-23T03:52:28.004Z,0.10
2019-01-23T03:54:55.695Z,0.20
2019-01-23T03:57:28.670Z,0.30
2019-01-23T03:59:55.738Z,0.20
2019-01-23T04:02:22.613Z,0.30
2019-01-23T04:04:49.569Z,0.20
2019-01-23T04:07:17.236Z,0.50
2019-01-23T04:09:43.899Z,-0.40
2019-01-23T04:12:10.714Z,-0.80
2019-01-23T04:14:37.729Z,-0.50
2019-01-23T04:17:04.916Z,-0.20
2019-01-23T04:19:31.878Z,0.00
2019-01-23T04:22:01.219Z,-0.30
2019-01-23T04:24:29.213Z,-0.20
2019-01-23T04:26:57.100Z,-0.10
2019-01-23T04:29:26.656Z,-0.30
2019-01-23T04:31:55.568Z,-0.10
2019-01-23T04:34:23.397Z,-0.30
2019-01-23T04:36:50.136Z,-0.20
2019-01-23T04:39:19.213Z,0.00
2019-01-23T04:41:48.422Z,0.30
2019-01-23T04:44:15.700Z,0.20
2019-01-23T04:46:44.471Z,-0.30
2019-01-23T04:52:04.756Z,0.00
2019-01-23T04:54:34.604Z,0.20
2019-01-23T04:57:03.149Z,0.40
2019-01-23T04:59:29.857Z,0.10
2019-01-23T05:01:59.853Z,0.10
2019-01-23T05:04:27.540Z,-0.10
2019-01-23T05:06:57.570Z,0.00
2019-01-23T05:09:25.708Z,0.00
2019-01-23T05:11:55.664Z,0.30
2019-01-23T05:14:34.411Z,0.40
2019-01-23T05:17:01.124Z,0.40
2019-01-23T05:19:28.045Z,0.00
2019-01-23T05:21:57.368Z,0.00
2019-01-23T05:24:25.049Z,0.00
2019-01-23T05:26:52.916Z,0.10
2019-01-23T05:29:23.551Z,-0.70
2019-01-23T05:31:54.481Z,-0.70
2019-01-23T05:34:26.361Z,-0.60
2019-01-23T05:36:55.617Z,-1.00
2019-01-23T05:39:24.010Z,-1.00
2019-01-23T05:41:51.690Z,-0.80
2019-01-23T05:44:21.303Z,-0.40
2019-01-23T05:46:49.619Z,-0.10
2019-01-23T05:49:16.311Z,0.00
2019-01-23T05:51:43.114Z,-0.40
2019-01-23T05:54:12.562Z,-0.70
2019-01-23T05:56:39.227Z,-0.30
2019-01-23T05:59:06.144Z,-0.10
2019-01-23T06:01:32.789Z,-0.20
2019-01-23T06:03:59.507Z,-0.70
2019-01-23T06:06:26.340Z,-0.50
2019-01-23T06:08:53.239Z,-0.30
2019-01-23T06:11:21.583Z,-0.20
2019-01-23T06:13:48.857Z,-0.20
2019-01-23T06:16:15.528Z,0.10
2019-01-23T06:18:42.421Z,-0.20
2019-01-23T06:21:09.617Z,-0.10
2019-01-23T06:23:36.567Z,0.10
2019-01-23T06:26:03.479Z,-0.40
2019-01-23T06:28:30.095Z,-0.50
2019-01-23T06:30:58.985Z,-0.20
2019-01-23T06:33:25.679Z,0.10
2019-01-23T06:35:53.840Z,0.20
2019-01-23T06:38:20.959Z,-0.10
2019-01-23T06:40:49.198Z,-0.30
2019-01-23T06:43:16.190Z,-0.70
2019-01-23T06:45:44.485Z,-0.60
2019-01-23T06:48:12.301Z,-0.20
2019-01-23T06:50:39.792Z,-0.10
2019-01-23T06:53:13.817Z,0.20
2019-01-23T06:55:37.051Z,0.30
2019-01-23T06:58:04.327Z,0.50
2019-01-23T07:03:19.599Z,0.20
2019-01-23T07:05:46.225Z,0.10
2019-01-23T07:08:12.843Z,-0.30
2019-01-23T07:10:39.433Z,-0.50
2019-01-23T07:13:06.404Z,0.00
2019-01-23T07:15:33.320Z,-0.10
2019-01-23T07:17:59.947Z,0.00
2019-01-23T07:20:26.590Z,0.00
2019-01-23T07:22:53.443Z,0.20
2019-01-23T07:25:20.452Z,0.50
2019-01-23T07:27:47.060Z,0.50
2019-01-23T07:30:13.678Z,0.40
2019-01-23T07:32:40.559Z,0.60
2019-01-23T07:35:07.189Z,0.70
2019-01-23T07:37:33.816Z,0.50
2019-01-23T07:40:00.736Z,0.30
2019-01-23T07:42:27.739Z,0.40
2019-01-23T07:44:54.764Z,0.40
2019-01-23T07:47:22.120Z,-0.20
2019-01-23T07:49:50.123Z,0.10
2019-01-23T07:52:16.861Z,0.30
2019-01-23T07:54:43.771Z,0.60
2019-01-23T07:57:10.441Z,0.70
2019-01-23T07:59:37.063Z,0.70
2019-01-23T08:02:04.629Z,0.50
2019-01-23T08:04:31.230Z,0.30
2019-01-23T08:06:57.949Z,0.20
2019-01-23T08:09:24.576Z,0.20
2019-01-23T08:11:51.243Z,0.20
2019-01-23T08:14:18.021Z,-0.10
2019-01-23T08:16:44.640Z,-0.10
2019-01-23T08:19:13.046Z,-0.10
2019-01-23T08:21:41.986Z,0.00
2019-01-23T08:24:12.336Z,0.40
2019-01-23T08:26:41.271Z,0.90
2019-01-23T08:29:09.644Z,0.30
2019-01-23T08:31:36.282Z,0.10
2019-01-23T08:34:05.476Z,-0.20
2019-01-23T08:36:35.955Z,0.60
2019-01-23T08:39:05.260Z,1.10
2019-01-23T08:41:33.296Z,0.60
2019-01-23T08:43:59.955Z,0.00
2019-01-23T08:46:28.927Z,-0.10
2019-01-23T08:48:58.268Z,0.10
2019-01-23T08:51:25.053Z,0.30
2019-01-23T08:53:53.689Z,0.40
2019-01-23T08:56:21.027Z,-0.10
2019-01-23T08:58:47.707Z,-0.30
2019-01-23T09:01:16.840Z,0.10
2019-01-23T09:03:45.761Z,0.10
2019-01-23T09:06:12.348Z,-0.50
2019-01-23T09:08:39.787Z,-0.20
2019-01-23T09:11:10.831Z,0.30
2019-01-23T09:13:38.783Z,0.30
2019-01-23T09:16:05.878Z,0.50
2019-01-23T09:18:35.266Z,1.20
2019-01-23T09:21:03.069Z,1.20
2019-01-23T09:23:33.117Z,1.40
2019-01-23T09:26:02.359Z,1.10
2019-01-23T09:28:31.531Z,1.40
2019-01-23T09:30:59.174Z,1.60
2019-01-23T09:33:29.034Z,1.70
2019-01-23T09:35:56.399Z,0.70
2019-01-23T09:38:25.569Z,0.70
2019-01-23T09:40:58.625Z,1.20
2019-01-23T09:43:28.434Z,0.60
2019-01-23T09:45:55.541Z,-0.10
2019-01-23T09:48:23.626Z,0.20
2019-01-23T09:50:53.777Z,0.20
2019-01-23T09:53:24.805Z,0.30
2019-01-23T09:55:52.479Z,1.00
2019-01-23T09:58:19.080Z,0.90
2019-01-23T10:01:06.738Z,0.30
2019-01-23T10:06:19.669Z,-0.10
2019-01-23T10:08:49.396Z,0.10
2019-01-23T10:11:29.316Z,0.30
2019-01-23T10:13:51.309Z,0.40
2019-01-23T10:16:21.747Z,0.40
2019-01-23T10:18:56.042Z,0.40
2019-01-23T10:21:31.108Z,0.70
2019-01-23T10:24:01.477Z,1.20
2019-01-23T10:26:28.121Z,1.10
2019-01-23T10:28:55.256Z,0.80
2019-01-23T10:31:22.413Z,0.40
2019-01-23T10:33:52.060Z,0.40
2019-01-23T10:36:21.263Z,0.30
2019-01-23T10:38:48.379Z,0.80
2019-01-23T10:41:18.759Z,0.80
2019-01-23T10:43:45.385Z,0.80
2019-01-23T10:46:15.037Z,0.30
2019-01-23T10:48:43.982Z,0.50
2019-01-23T10:51:15.001Z,0.90
2019-01-23T10:53:41.674Z,1.50
2019-01-23T10:56:13.184Z,1.80
2019-01-23T10:58:39.578Z,1.30
2019-01-23T11:01:06.212Z,1.20
2019-01-23T11:03:35.372Z,2.00
2019-01-23T11:06:03.562Z,1.60
2019-01-23T11:08:30.464Z,1.90
2019-01-23T11:10:57.878Z,2.40
2019-01-23T11:13:24.887Z,2.40
2019-01-23T11:15:53.621Z,2.60
2019-01-23T11:18:24.753Z,2.10
2019-01-23T11:20:51.635Z,1.10
2019-01-23T11:23:21.314Z,0.60
2019-01-23T11:25:48.996Z,0.20
2019-01-23T11:28:16.815Z,0.60
2019-01-23T11:30:43.767Z,0.60
2019-01-23T11:33:10.675Z,1.40
2019-01-23T11:35:38.476Z,1.90
2019-01-23T11:38:09.897Z,2.00
2019-01-23T11:40:36.880Z,1.50
2019-01-23T11:43:15.921Z,1.50
2019-01-23T11:45:42.874Z,1.30
2019-01-23T11:48:11.288Z,1.40
2019-01-23T11:50:38.088Z,1.10
2019-01-23T11:53:06.988Z,1.40
2019-01-23T11:55:37.061Z,1.80
2019-01-23T11:58:03.775Z,1.40
2019-01-23T12:00:30.437Z,1.30
2019-01-23T12:02:59.681Z,1.10
2019-01-23T12:05:28.750Z,1.50
2019-01-23T12:07:58.696Z,1.90
2019-01-23T12:10:25.557Z,2.00
2019-01-23T12:12:53.095Z,1.90
2019-01-23T12:15:23.526Z,2.20
2019-01-23T12:17:49.905Z,2.70
2019-01-23T12:20:16.539Z,2.70
2019-01-23T12:22:43.500Z,2.10
2019-01-23T12:25:10.158Z,2.10
2019-01-23T12:27:39.795Z,1.60
2019-01-23T12:30:10.138Z,1.60
2019-01-23T12:32:39.050Z,1.90
2019-01-23T12:35:07.868Z,1.90
2019-01-23T12:37:34.763Z,2.40
2019-01-23T12:40:01.672Z,2.10
2019-01-23T12:42:30.674Z,2.50
2019-01-23T12:45:01.906Z,2.50
2019-01-23T12:47:28.822Z,2.70
2019-01-23T12:49:55.497Z,3.00
2019-01-23T12:52:22.098Z,2.60
2019-01-23T12:54:52.802Z,2.50
2019-01-23T12:57:20.382Z,2.00
2019-01-23T12:59:48.236Z,2.50
2019-01-23T13:02:16.994Z,2.20
2019-01-23T13:04:45.410Z,2.40
2019-01-23T13:07:13.722Z,2.80
2019-01-23T13:09:40.115Z,2.60
2019-01-23T13:12:09.259Z,2.50
2019-01-23T13:14:39.652Z,2.80
2019-01-23T13:17:08.268Z,2.80
2019-01-23T13:19:35.510Z,2.10
2019-01-23T13:22:04.293Z,1.90
2019-01-23T13:24:31.268Z,1.70
2019-01-23T13:27:00.472Z,1.20
2019-01-23T13:29:29.090Z,1.20
2019-01-23T13:31:57.255Z,1.40
2019-01-23T13:34:24.963Z,1.70
2019-01-23T13:36:51.557Z,1.30
2019-01-23T13:39:18.492Z,2.10
2019-01-23T13:41:45.978Z,2.40
2019-01-23T13:44:14.483Z,2.40
2019-01-23T13:46:42.304Z,2.00
2019-01-23T13:49:10.036Z,2.40
2019-01-23T13:51:38.027Z,2.10
2019-01-23T13:54:05.642Z,2.20
2019-01-23T13:56:33.198Z,1.60
2019-01-23T13:59:05.914Z,2.10
2019-01-23T14:01:33.825Z,2.30
2019-01-23T14:04:03.513Z,2.30
2019-01-23T14:06:34.783Z,2.50
2019-01-23T14:09:02.930Z,2.50
2019-01-23T14:11:33.163Z,2.30
2019-01-23T14:14:01.103Z,2.00
2019-01-23T14:16:32.365Z,1.50
2019-01-23T14:19:03.606Z,2.00
2019-01-23T14:21:36.241Z,2.20
2019-01-23T14:24:05.165Z,2.40
2019-01-23T14:26:34.360Z,2.30
2019-01-23T14:29:01.218Z,2.20
2019-01-23T14:31:38.536Z,2.50
2019-01-23T14:34:05.927Z,2.60
2019-01-23T14:36:33.639Z,2.60
2019-01-23T14:39:01.729Z,2.00
2019-01-23T14:41:28.343Z,2.30
2019-01-23T14:44:03.175Z,2.00
2019-01-23T14:46:28.230Z,1.70
2019-01-23T14:49:05.981Z,1.90
2019-01-23T14:51:41.320Z,1.80
2019-01-23T14:54:08.727Z,1.60
2019-01-23T14:56:36.443Z,1.70
2019-01-23T15:01:51.208Z,2.00
2019-01-23T15:07:10.627Z,2.50
2019-01-23T15:09:37.848Z,2.60
2019-01-23T15:12:05.940Z,2.30
2019-01-23T15:14:33.754Z,2.10
2019-01-23T15:17:03.061Z,1.90
2019-01-23T15:19:30.680Z,1.50
2019-01-23T15:22:01.586Z,1.90
2019-01-23T15:24:30.962Z,1.90
2019-01-23T15:26:59.080Z,1.90
2019-01-23T15:29:27.339Z,1.80
2019-01-23T15:31:55.499Z,1.00
2019-01-23T15:34:26.647Z,0.20
2019-01-23T15:36:54.545Z,0.30
2019-01-23T15:39:25.637Z,0.80
2019-01-23T15:41:52.682Z,1.10
2019-01-23T15:44:29.603Z,1.30
2019-01-23T15:47:04.106Z,1.70
2019-01-23T15:49:32.543Z,1.70
2019-01-23T15:52:01.688Z,1.60
2019-01-23T15:54:28.834Z,1.30
2019-01-23T15:59:43.525Z,1.10
2019-01-23T16:02:14.250Z,1.10
2019-01-23T16:04:41.888Z,1.00
2019-01-23T16:07:13.330Z,0.90
2019-01-23T16:09:42.046Z,1.00
2019-01-23T16:12:09.450Z,0.50
2019-01-23T16:14:38.954Z,0.30
2019-01-23T16:17:05.800Z,0.10
2019-01-23T16:19:32.832Z,0.60
2019-01-23T16:21:59.685Z,0.30
2019-01-23T16:24:26.377Z,0.10
2019-01-23T16:26:53.062Z,0.00
2019-01-23T16:29:19.834Z,-0.10
2019-01-23T16:31:46.499Z,0.40
2019-01-23T16:34:13.136Z,0.60
2019-01-23T16:36:40.026Z,0.50
2019-01-23T16:39:07.003Z,1.00
2019-01-23T16:41:33.892Z,0.90
2019-01-23T16:44:01.403Z,1.30
2019-01-23T16:46:28.142Z,1.30
2019-01-23T16:48:55.537Z,1.20
2019-01-23T16:51:22.180Z,1.30
2019-01-23T16:53:49.096Z,1.30
2019-01-23T16:56:15.698Z,1.00
2019-01-23T16:58:42.323Z,1.10
2019-01-23T17:01:09.577Z,0.70
2019-01-23T17:03:36.363Z,0.90
2019-01-23T17:06:03.279Z,1.00
2019-01-23T17:08:29.950Z,0.80
2019-01-23T17:10:56.878Z,0.80
2019-01-23T17:13:23.491Z,0.60
2019-01-23T17:15:50.479Z,0.60
2019-01-23T17:18:17.377Z,1.10
2019-01-23T17:20:47.545Z,1.40
2019-01-23T17:23:16.412Z,1.00
2019-01-23T17:25:43.018Z,0.60
2019-01-23T17:28:09.619Z,0.70
2019-01-23T17:30:38.865Z,1.10
2019-01-23T17:33:05.665Z,1.20
2019-01-23T17:35:32.528Z,1.10
2019-01-23T17:37:59.547Z,0.90
2019-01-23T17:40:26.287Z,1.00
2019-01-23T17:42:52.895Z,1.30
2019-01-23T17:45:20.473Z,1.40
2019-01-23T17:47:48.122Z,1.30
2019-01-23T17:50:14.890Z,1.00
2019-01-23T17:52:42.094Z,1.30
2019-01-23T17:55:10.174Z,1.30
2019-01-23T17:57:37.985Z,1.10
2019-01-23T18:00:05.242Z,1.20
2019-01-23T18:02:33.255Z,1.40
2019-01-23T18:05:00.229Z,1.50
2019-01-23T18:07:27.160Z,1.50
2019-01-23T18:09:53.790Z,1.40
2019-01-23T18:12:20.397Z,1.20
2019-01-23T18:14:49.126Z,1.30
2019-01-23T18:17:16.529Z,1.20
2019-01-23T18:19:43.484Z,1.20
2019-01-23T18:24:51.838Z,1.30
2019-01-23T18:27:19.501Z,1.30
2019-01-23T18:32:32.853Z,1.50
2019-01-23T18:35:04.575Z,1.50
2019-01-23T18:37:32.268Z,1.30
2019-01-23T18:40:05.050Z,1.20
2019-01-23T18:42:31.981Z,1.40
2019-01-23T18:44:59.378Z,1.30
2019-01-23T18:47:29.915Z,1.30
2019-01-23T18:50:00.370Z,1.50
2019-01-23T18:52:30.360Z,1.60
2019-01-23T18:54:58.784Z,1.40
2019-01-23T18:57:26.647Z,1.30
2019-01-23T18:59:59.318Z,1.10
2019-01-23T19:02:29.802Z,0.80
2019-01-23T19:05:02.745Z,0.80
2019-01-23T19:07:31.685Z,0.70
2019-01-23T19:10:03.421Z,1.00
2019-01-23T19:12:33.232Z,0.80
2019-01-23T19:15:01.782Z,1.10
2019-01-23T19:17:30.591Z,1.20
2019-01-23T19:20:10.954Z,1.50
2019-01-23T19:22:42.008Z,1.60
2019-01-23T19:25:11.086Z,1.80
2019-01-23T19:27:38.969Z,1.80
2019-01-23T19:30:09.313Z,1.80
2019-01-23T19:32:39.517Z,1.50
2019-01-23T19:35:07.152Z,1.40
2019-01-23T19:37:34.217Z,1.30
2019-01-23T19:40:00.955Z,1.30
2019-01-23T19:42:28.813Z,1.30
2019-01-23T19:44:57.408Z,1.10
2019-01-23T19:47:25.343Z,1.00
2019-01-23T19:49:52.380Z,1.10
2019-01-23T19:52:19.641Z,1.30
2019-01-23T19:54:49.939Z,1.40
2019-01-23T19:57:17.727Z,1.50
2019-01-23T19:59:49.694Z,1.20
2019-01-23T20:02:19.873Z,1.30
2019-01-23T20:04:46.495Z,1.30
2019-01-23T20:07:15.365Z,1.40
2019-01-23T20:09:44.100Z,1.50
2019-01-23T20:12:15.683Z,1.30
2019-01-23T20:14:41.638Z,1.60
2019-01-23T20:17:09.770Z,1.60
2019-01-23T20:19:38.968Z,1.60
2019-01-23T20:22:05.794Z,1.70
2019-01-23T20:24:36.612Z,1.70
2019-01-23T20:27:05.524Z,1.80
2019-01-23T20:29:32.642Z,1.90
2019-01-23T20:32:02.916Z,1.80
2019-01-23T20:34:33.129Z,1.60
2019-01-23T20:37:03.764Z,1.50
2019-01-23T20:39:34.810Z,1.20
2019-01-23T20:42:03.360Z,0.90
2019-01-23T20:44:31.861Z,1.00
2019-01-23T20:47:00.832Z,1.00
2019-01-23T20:49:27.677Z,1.00
2019-01-23T20:51:54.414Z,1.30
2019-01-23T20:54:21.369Z,1.50
2019-01-23T20:56:49.927Z,1.60
2019-01-23T20:59:16.582Z,1.50
2019-01-23T21:01:47.217Z,1.50
2019-01-23T21:04:13.888Z,1.40
2019-01-23T21:06:40.871Z,0.90
2019-01-23T21:09:07.592Z,0.90
2019-01-23T21:11:34.686Z,0.70
2019-01-23T21:14:04.536Z,0.50
2019-01-23T21:16:32.060Z,0.30
2019-01-23T21:18:58.694Z,0.30
2019-01-23T21:21:27.921Z,0.70
2019-01-23T21:23:55.139Z,0.90
2019-01-23T21:26:21.766Z,1.10
2019-01-23T21:28:48.965Z,0.90
2019-01-23T21:31:16.606Z,1.30
2019-01-23T21:33:45.530Z,1.50
2019-01-23T21:36:12.868Z,1.50
2019-01-23T21:38:42.171Z,1.30
2019-01-23T21:41:08.897Z,1.40
2019-01-23T21:43:35.980Z,1.60
2019-01-23T21:46:21.548Z,1.50
2019-01-23T21:48:50.292Z,1.20
2019-01-23T22:16:41.542Z,0.80
2019-01-23T22:19:08.246Z,0.70
2019-01-23T22:21:35.479Z,0.90
2019-01-23T22:24:02.424Z,0.80
2019-01-23T22:26:29.296Z,0.80
2019-01-23T22:28:56.221Z,0.80
2019-01-23T22:31:22.965Z,0.80
2019-01-23T22:33:55.925Z,0.50
2019-01-23T22:36:17.953Z,0.40
2019-01-23T22:38:48.482Z,0.50
2019-01-23T22:41:21.994Z,0.60
2019-01-23T22:43:48.907Z,0.70
2019-01-23T22:46:15.633Z,0.70
2019-01-23T22:48:47.449Z,0.60
2019-01-23T22:51:14.484Z,0.50
2019-01-23T22:53:43.391Z,0.50
2019-01-23T22:56:11.015Z,0.60
2019-01-23T22:58:39.810Z,0.40
2019-01-23T23:01:07.160Z,0.50
2019-01-23T23:03:40.341Z,0.80
2019-01-23T23:06:14.056Z,0.80
2019-01-23T23:08:44.727Z,0.90
2019-01-23T23:11:16.046Z,1.20
2019-01-23T23:13:45.392Z,1.00
2019-01-23T23:16:12.122Z,1.20
2019-01-23T23:18:40.028Z,1.20
2019-01-23T23:21:08.715Z,0.90
2019-01-23T23:23:38.029Z,0.90
2019-01-23T23:26:04.665Z,1.20
2019-01-23T23:28:35.714Z,1.20
2019-01-23T23:31:08.837Z,1.10
2019-01-23T23:33:36.499Z,1.20
2019-01-23T23:36:04.175Z,1.00
2019-01-23T23:38:32.917Z,0.40
2019-01-23T23:41:00.558Z,0.90
2019-01-23T23:43:29.598Z,1.20
2019-01-23T23:45:56.614Z,1.40
2019-01-23T23:48:24.511Z,1.40
2019-01-23T23:50:57.629Z,1.40
2019-01-23T23:53:28.272Z,1.10
2019-01-23T23:55:56.419Z,1.20
2019-01-23T23:58:27.919Z,1.30
